Time;durP1;ratioP1;P1;durP2;ratioP2;P2;SDS_P1;SDS_P2;PMS_P1;PMS_P2;Temp;Humidity;BMP_temperature;BMP_pressure;BME280_temperature;BME280_humidity;BME280_pressure;Samples;Min_cycle;Max_cycle;Signal;HPM_P1;HPM_P2
2024/04/08 00:00:30;;;;;;;6.32;2.22;;;14.30;99.90;;;17.21;100.00;100454.41;4914862;29;20111;-77
2024/04/08 00:02:57;;;;;;;6.38;2.42;;;14.10;99.90;;;16.95;100.00;100454.19;4914816;29;20036;-77
2024/04/08 00:05:23;;;;;;;7.38;2.50;;;14.10;99.90;;;16.91;100.00;100451.16;4914277;29;20039;-76
2024/04/08 00:07:51;;;;;;;7.28;2.28;;;14.10;99.90;;;16.74;100.00;100453.22;4914581;29;20036;-76
2024/04/08 00:10:17;;;;;;;8.63;2.47;;;14.00;99.90;;;16.96;100.00;100431.06;4913255;29;20044;-77
2024/04/08 00:12:45;;;;;;;8.55;2.83;;;14.00;99.90;;;17.10;100.00;100437.81;4914323;29;20048;-76
2024/04/08 00:15:13;;;;;;;8.40;2.63;;;14.00;99.90;;;16.67;100.00;100385.41;4916656;29;20043;-76
2024/04/08 00:17:42;;;;;;;;;;;14.00;99.90;;;16.86;100.00;100407.03;4914713;29;20396;-76
2024/04/08 00:20:11;;;;;;;8.32;2.67;;;14.00;99.90;;;17.04;100.00;100419.59;4914669;29;19976;-76
2024/04/08 00:22:40;;;;;;;6.43;2.95;;;14.00;99.90;;;17.16;100.00;100418.53;4913969;29;20044;-76
2024/04/08 00:25:08;;;;;;;7.43;2.58;;;14.00;99.90;;;17.15;100.00;100411.38;4914564;29;20095;-76
2024/04/08 00:27:34;;;;;;;5.50;2.80;;;13.90;99.90;;;16.94;100.00;100422.22;4914732;29;20040;-77
2024/04/08 00:30:00;;;;;;;9.23;2.58;;;13.90;99.90;;;17.20;100.00;100420.50;4914558;29;20028;-77
2024/04/08 00:32:25;;;;;;;8.45;2.88;;;13.90;99.90;;;17.06;100.00;100417.38;4914566;29;20457;-76
2024/04/08 00:34:51;;;;;;;10.48;3.25;;;13.90;99.90;;;17.25;100.00;100409.50;4914054;29;20055;-76
2024/04/08 00:37:17;;;;;;;6.38;2.60;;;13.80;99.90;;;17.15;100.00;100405.84;4914095;29;20040;-76
2024/04/08 00:39:43;;;;;;;7.60;2.55;;;13.90;99.90;;;16.95;100.00;100379.78;4913362;29;20054;-77
2024/04/08 00:42:08;;;;;;;10.10;3.00;;;13.80;99.90;;;16.98;100.00;100390.34;4914382;29;20032;-77
2024/04/08 00:44:34;;;;;;;9.32;2.70;;;13.80;99.90;;;17.08;100.00;100406.09;4914228;29;20056;-77
2024/04/08 00:47:00;;;;;;;7.82;2.95;;;13.80;99.90;;;16.93;100.00;100401.28;4914536;29;20491;-77
2024/04/08 00:49:28;;;;;;;7.63;2.75;;;13.70;99.90;;;17.02;100.00;100380.44;4914034;29;20058;-77
2024/04/08 00:51:56;;;;;;;5.82;2.70;;;13.70;99.90;;;17.38;100.00;100383.38;4913740;29;20506;-77
2024/04/08 00:54:25;;;;;;;;;;;13.60;99.90;;;17.47;100.00;100382.84;4914812;29;20468;-76
2024/04/08 00:56:53;;;;;;;;;;;13.60;99.90;;;17.58;100.00;100387.31;4914308;29;19919;-76
2024/04/08 00:59:22;;;;;;;7.32;2.75;;;13.70;99.90;;;17.58;100.00;100359.75;4912351;29;19967;-77
2024/04/08 01:01:49;;;;;;;4.35;2.45;;;13.60;99.90;;;18.07;100.00;100365.94;4912715;29;20048;-76
2024/04/08 01:04:15;;;;;;;8.33;2.90;;;13.60;99.90;;;17.61;100.00;100353.69;4926034;29;20093;-77
2024/04/08 01:06:42;;;;;;;7.90;2.92;;;13.60;99.90;;;18.17;100.00;100373.38;4928717;29;20686;-77
2024/04/08 01:09:08;;;;;;;6.50;2.70;;;13.60;99.90;;;18.28;100.00;100360.41;4914684;29;20054;-78
2024/04/08 01:12:42;;;;;;;10.18;3.00;;;13.50;99.90;;;17.64;100.00;100380.72;5482163;25;20345;-77
2024/04/08 01:15:08;;;;;;;7.93;3.08;;;13.50;99.90;;;17.56;100.00;100375.72;5462954;26;19991;-77
2024/04/08 01:17:34;;;;;;;8.18;2.70;;;13.50;99.90;;;17.48;100.00;100366.03;5429940;26;20007;-77
2024/04/08 01:19:59;;;;;;;7.90;2.92;;;13.50;99.90;;;17.42;100.00;100349.75;5475562;25;20336;-77
2024/04/08 01:22:30;;;;;;;7.85;3.03;;;13.60;99.90;;;17.36;100.00;100341.47;5451269;26;19995;-77
2024/04/08 01:24:59;;;;;;;9.43;2.78;;;13.60;99.90;;;17.29;100.00;100346.41;5436241;26;20071;-77
2024/04/08 01:27:26;;;;;;;10.35;3.10;;;13.50;99.90;;;16.91;100.00;100351.13;5455164;26;20007;-77
2024/04/08 01:29:52;;;;;;;8.13;3.40;;;13.50;99.90;;;16.79;100.00;100371.44;5464999;26;20460;-76
2024/04/08 01:32:20;;;;;;;8.68;3.20;;;13.50;99.90;;;17.19;100.00;100379.41;5455813;26;20044;-77
2024/04/08 01:34:46;;;;;;;;;;;13.50;99.90;;;17.17;100.00;100378.84;5437035;26;20003;-77
2024/04/08 01:37:12;;;;;;;9.65;3.17;;;13.40;99.90;;;16.93;100.00;100387.50;5457603;26;19932;-76
2024/04/08 01:39:37;;;;;;;10.38;3.47;;;13.40;99.90;;;16.94;100.00;100378.13;5452246;26;20112;-76
2024/04/08 01:42:04;;;;;;;10.55;3.40;;;13.40;99.90;;;17.11;100.00;100394.56;5450752;26;20357;-77
2024/04/08 01:44:29;;;;;;;8.10;3.33;;;13.40;99.90;;;16.72;100.00;100376.38;5461834;26;19998;-77
2024/04/08 01:46:55;;;;;;;8.98;3.90;;;13.40;99.90;;;16.52;100.00;100366.84;5437302;26;20002;-77
2024/04/08 01:49:26;;;;;;;6.38;3.50;;;13.50;99.90;;;16.86;100.00;100397.94;5498678;25;20005;-77
2024/04/08 01:51:52;;;;;;;9.40;3.58;;;13.40;99.90;;;16.79;100.00;100395.41;5459223;26;20079;-78
2024/04/08 01:54:36;;;;;;;7.50;3.45;;;13.40;99.90;;;16.70;100.00;100366.69;5469170;26;20014;-79
2024/04/08 01:57:02;;;;;;;7.07;3.33;;;13.40;99.90;;;16.70;100.00;100377.72;5471935;26;20010;-77
2024/04/08 01:59:28;;;;;;;11.75;3.40;;;13.40;99.90;;;16.82;100.00;100386.59;5462520;26;20076;-77
2024/04/08 02:01:53;;;;;;;7.72;3.10;;;13.40;99.90;;;16.66;100.00;100381.00;5462903;26;20018;-77
2024/04/08 02:04:19;;;;;;;7.25;3.58;;;13.40;99.90;;;16.41;100.00;100376.09;5460632;26;20014;-77
2024/04/08 02:06:45;;;;;;;9.38;3.33;;;13.40;99.90;;;16.38;100.00;100393.16;5437137;26;19999;-77
2024/04/08 02:09:10;;;;;;;8.38;3.60;;;13.30;99.90;;;16.24;100.00;100407.38;5465185;26;20039;-77
2024/04/08 02:11:36;;;;;;;8.65;3.42;;;13.30;99.90;;;16.31;100.00;100393.41;5446228;26;19991;-77
2024/04/08 02:14:02;;;;;;;8.48;3.28;;;13.30;99.90;;;16.19;100.00;100407.31;5457798;26;20005;-77
2024/04/08 02:16:28;;;;;;;7.00;3.47;;;13.30;99.90;;;16.40;100.00;100415.75;5462118;26;19995;-77
2024/04/08 02:18:53;;;;;;;8.15;3.33;;;13.30;99.90;;;16.02;100.00;100437.66;5459936;26;20009;-76
2024/04/08 02:21:19;;;;;;;6.57;3.25;;;13.30;99.90;;;16.46;100.00;100438.66;5462202;26;20009;-76
2024/04/08 02:23:45;;;;;;;7.20;3.30;;;13.20;99.90;;;16.10;100.00;100417.97;5441037;26;20022;-75
2024/04/08 02:26:11;;;;;;;9.48;3.83;;;13.20;99.90;;;16.28;100.00;100448.13;5416614;26;20299;-75
2024/04/08 02:28:42;;;;;;;5.10;2.88;;;13.20;99.90;;;15.92;100.00;100471.41;5440901;26;20013;-77
2024/04/08 02:31:08;;;;;;;9.43;3.50;;;13.20;99.90;;;16.08;100.00;100477.94;5442871;26;20006;-76
2024/04/08 02:33:45;;;;;;;6.93;3.10;;;13.20;99.90;;;16.62;100.00;100486.44;5415652;26;19995;-75
2024/04/08 02:36:11;;;;;;;9.82;3.63;;;13.20;99.90;;;16.12;100.00;100504.94;5410183;26;20008;-77
2024/04/08 02:38:37;;;;;;;9.23;3.53;;;13.20;99.90;;;16.38;100.00;100509.63;5439907;26;19995;-76
2024/04/08 02:41:02;;;;;;;9.15;3.80;;;13.20;99.90;;;16.23;100.00;100514.94;5439558;26;20080;-76
2024/04/08 02:43:28;;;;;;;8.88;4.22;;;13.20;99.90;;;16.05;100.00;100456.44;5440974;26;20002;-77
2024/04/08 02:45:54;;;;;;;7.88;3.60;;;13.20;99.90;;;16.29;100.00;100483.63;5435004;26;20006;-76
2024/04/08 02:48:20;;;;;;;9.50;3.92;;;13.10;99.90;;;16.81;100.00;100498.72;5440920;26;20026;-77
2024/04/08 02:50:46;;;;;;;9.02;4.10;;;13.10;99.90;;;17.13;100.00;100475.03;5446069;26;20010;-76
2024/04/08 02:53:12;;;;;;;8.13;4.25;;;13.10;99.90;;;17.61;100.00;100449.38;5441813;26;20014;-77
2024/04/08 02:55:38;;;;;;;10.25;4.45;;;13.10;99.90;;;17.96;100.00;100456.13;5430170;26;20065;-77
2024/04/08 02:58:04;;;;;;;9.85;4.13;;;13.10;99.90;;;17.78;100.00;100433.44;5429347;26;20004;-77
2024/04/08 03:00:30;;;;;;;10.27;3.83;;;13.00;99.90;;;17.81;100.00;100437.59;5440601;26;19991;-76
2024/04/08 03:02:56;;;;;;;10.73;4.10;;;13.00;99.90;;;17.65;100.00;100433.97;5409576;26;20446;-76
2024/04/08 03:05:22;;;;;;;10.30;3.70;;;12.90;99.90;;;17.87;100.00;100447.56;5437366;26;19995;-76
2024/04/08 03:07:51;;;;;;;7.95;3.30;;;13.00;99.90;;;17.77;100.00;100437.31;5438462;26;20059;-77
2024/04/08 03:10:17;;;;;;;7.22;3.22;;;13.00;99.90;;;17.63;100.00;100422.34;5417829;26;20007;-76
2024/04/08 03:12:42;;;;;;;8.73;3.78;;;12.90;99.90;;;17.49;100.00;100419.25;5415649;26;20447;-76
2024/04/08 03:15:09;;;;;;;8.65;3.70;;;12.90;99.90;;;17.45;100.00;100398.84;5436406;26;19998;-76
2024/04/08 03:17:35;;;;;;;6.80;3.42;;;12.80;99.90;;;17.62;100.00;100399.47;5434496;26;20010;-76
2024/04/08 03:20:02;;;;;;;11.02;3.92;;;12.80;99.90;;;17.64;100.00;100393.69;5445185;26;19994;-76
2024/04/08 03:22:27;;;;;;;15.10;3.60;;;12.80;99.90;;;17.42;100.00;100349.75;5405992;26;20003;-76
2024/04/08 03:24:53;;;;;;;10.68;4.00;;;12.80;99.90;;;17.62;100.00;100387.59;5450260;26;19999;-76
2024/04/08 03:27:19;;;;;;;8.20;3.88;;;12.80;99.90;;;17.68;100.00;100369.97;5435886;26;20006;-76
2024/04/08 03:29:44;;;;;;;10.27;4.65;;;12.80;99.90;;;17.60;100.00;100346.50;5415233;26;19995;-76
2024/04/08 03:32:11;;;;;;;10.35;4.32;;;12.80;99.90;;;17.40;100.00;100348.09;5430592;26;20465;-76
2024/04/08 03:34:37;;;;;;;9.35;4.55;;;12.80;99.90;;;17.18;100.00;100331.75;5435256;26;20072;-75
2024/04/08 03:37:03;;;;;;;9.48;4.18;;;12.80;99.90;;;17.00;100.00;100327.53;5416326;26;20035;-75
2024/04/08 03:39:29;;;;;;;8.43;3.60;;;12.80;99.90;;;16.72;100.00;100320.44;5441084;26;20006;-75
2024/04/08 03:41:55;;;;;;;13.93;4.18;;;12.80;99.90;;;16.67;100.00;100311.06;5435052;26;20363;-75
2024/04/08 03:44:21;;;;;;;11.82;4.15;;;12.80;99.90;;;17.24;100.00;100332.59;5434178;26;20067;-75
2024/04/08 03:46:49;;;;;;;7.28;3.75;;;12.80;99.90;;;17.34;100.00;100353.84;5432937;26;20129;-74
2024/04/08 03:49:15;;;;;;;;;;;12.70;99.90;;;17.54;100.00;100355.88;5436616;26;20011;-75
2024/04/08 03:51:40;;;;;;;12.13;4.65;;;12.70;99.90;;;17.60;100.00;100354.78;5460386;26;19993;-75
2024/04/08 03:54:06;;;;;;;9.73;4.47;;;12.70;99.90;;;17.14;100.00;100338.06;5431796;26;20005;-75
2024/04/08 03:56:32;;;;;;;7.93;4.38;;;12.70;99.90;;;17.41;100.00;100326.88;5434030;26;20003;-76
2024/04/08 03:58:58;;;;;;;8.40;4.45;;;12.60;99.90;;;17.53;100.00;100348.69;5407602;26;19994;-76
2024/04/08 04:01:25;;;;;;;9.48;4.55;;;12.60;99.90;;;17.56;100.00;100353.66;5445132;26;19999;-76
2024/04/08 04:03:51;;;;;;;9.05;5.00;;;12.60;99.90;;;17.43;100.00;100363.28;5437952;26;20064;-75
2024/04/08 04:06:16;;;;;;;9.07;4.70;;;12.60;99.90;;;17.43;100.00;100349.47;5444101;26;20026;-75
2024/04/08 04:08:42;;;;;;;10.32;4.75;;;12.60;99.90;;;17.46;100.00;100356.38;5445207;26;19995;-75
2024/04/08 04:11:08;;;;;;;10.52;4.80;;;12.50;99.90;;;17.50;100.00;100363.00;5429608;26;20011;-76
2024/04/08 04:13:34;;;;;;;9.98;4.32;;;12.50;99.90;;;17.42;100.00;100347.81;5433767;26;19998;-77
2024/04/08 04:16:03;;;;;;;7.38;4.32;;;12.50;99.90;;;17.52;100.00;100360.81;5438408;26;20004;-76
2024/04/08 04:18:29;;;;;;;10.02;4.50;;;12.40;99.90;;;17.34;100.00;100334.53;5446512;26;19999;-75
2024/04/08 04:20:54;;;;;;;11.13;4.53;;;12.40;99.90;;;17.32;100.00;100356.88;5454343;26;20111;-76
2024/04/08 04:23:22;;;;;;;10.65;4.60;;;12.30;99.90;;;17.32;100.00;100364.31;5460586;26;20035;-76
2024/04/08 04:25:58;;;;;;;10.95;4.47;;;12.30;99.90;;;17.15;100.00;100348.81;5457937;26;20006;-75
2024/04/08 04:28:24;;;;;;;10.73;4.63;;;12.30;99.90;;;17.17;100.00;100343.88;5464972;26;19994;-76
2024/04/08 04:30:57;;;;;;;9.73;4.82;;;12.30;99.90;;;16.74;100.00;100330.09;5468586;26;20017;-77
2024/04/08 04:33:23;;;;;;;8.40;5.00;;;12.30;99.90;;;16.36;100.00;100354.06;5465055;26;20427;-77
2024/04/08 04:35:57;;;;;;;9.43;4.97;;;12.40;99.90;;;16.92;100.00;100358.28;5430811;26;20433;-77
2024/04/08 04:38:24;;;;;;;7.13;4.43;;;12.40;99.90;;;17.07;100.00;100354.81;5418040;26;20081;-77
2024/04/08 04:41:05;;;;;;;11.63;5.13;;;12.40;99.90;;;17.39;100.00;100374.00;5453095;26;20326;-78
2024/04/08 04:43:31;;;;;;;11.52;4.85;;;12.40;99.90;;;16.95;100.00;100375.13;5434297;26;19995;-79
2024/04/08 04:45:57;;;;;;;9.80;4.90;;;12.50;99.90;;;17.03;100.00;100387.63;5430964;26;20494;-80
2024/04/08 04:48:24;;;;;;;10.18;4.30;;;12.50;99.90;;;16.82;100.00;100383.84;5452369;26;19994;-78
2024/04/08 04:50:50;;;;;;;9.77;4.30;;;12.50;99.90;;;16.64;100.00;100391.47;5445834;26;20063;-78
2024/04/08 04:53:16;;;;;;;9.85;4.22;;;12.60;99.90;;;16.63;100.00;100381.53;5451670;26;20630;-78
2024/04/08 04:55:54;;;;;;;10.25;4.45;;;12.60;99.90;;;16.88;100.00;100374.53;5415939;26;20036;-78
2024/04/08 04:58:22;;;;;;;10.85;4.78;;;12.60;99.90;;;17.02;100.00;100336.34;5434050;26;20009;-77
2024/04/08 05:00:49;;;;;;;7.82;4.40;;;12.50;99.90;;;17.45;100.00;100349.19;5427021;26;20006;-79
2024/04/08 05:03:18;;;;;;;10.38;5.10;;;12.50;99.90;;;17.15;100.00;100351.56;5421667;26;21148;-77
2024/04/08 05:06:04;;;;;;;8.27;4.88;;;12.40;99.90;;;17.12;100.00;100352.13;5412556;26;19998;-78
2024/04/08 05:08:30;;;;;;;10.13;4.63;;;12.40;99.90;;;17.07;100.00;100354.81;5434458;26;20068;-79
2024/04/08 05:10:55;;;;;;;8.80;4.70;;;12.30;99.90;;;16.90;100.00;100338.44;5444308;26;20002;-80
2024/04/08 05:13:27;;;;;;;7.40;4.00;;;12.30;99.90;;;17.10;100.00;100341.34;5410381;26;20003;-79
2024/04/08 05:15:58;;;;;;;9.30;4.38;;;12.30;99.90;;;17.21;100.00;100322.09;5448464;26;19991;-80
2024/04/08 05:18:23;;;;;;;9.43;4.65;;;12.30;99.90;;;17.30;100.00;100314.97;5435900;26;20014;-80
2024/04/08 05:20:50;;;;;;;10.85;5.63;;;12.20;99.90;;;17.27;100.00;100298.13;5462904;26;20549;-80
2024/04/08 05:23:17;;;;;;;9.95;4.50;;;12.20;99.90;;;17.29;100.00;100302.28;5440706;26;19996;-80
2024/04/08 05:25:43;;;;;;;9.95;4.95;;;12.20;99.90;;;17.09;100.00;100287.31;5452296;26;19996;-79
2024/04/08 05:28:08;;;;;;;9.90;4.97;;;12.10;99.90;;;17.15;100.00;100290.09;5433809;26;20399;-80
2024/04/08 05:30:34;;;;;;;8.48;4.97;;;12.10;99.90;;;17.11;100.00;100298.91;5465854;26;20426;-77
2024/04/08 05:33:01;;;;;;;15.43;5.85;;;12.10;99.90;;;16.75;100.00;100295.97;5425378;26;20051;-75
2024/04/08 05:35:27;;;;;;;9.18;5.20;;;12.10;99.90;;;17.06;100.00;100306.31;5445778;26;20063;-77
2024/04/08 05:37:52;;;;;;;8.45;4.68;;;12.10;99.90;;;17.21;100.00;100327.59;5445843;26;20011;-76
2024/04/08 05:40:18;;;;;;;10.68;4.88;;;12.10;99.90;;;17.22;100.00;100318.22;5448344;26;20522;-77
2024/04/08 05:42:45;;;;;;;11.73;5.07;;;12.10;99.90;;;17.23;100.00;100315.22;5455741;26;20026;-76
2024/04/08 05:45:11;;;;;;;10.20;4.93;;;12.10;99.90;;;17.01;100.00;100320.91;5461823;26;20062;-76
2024/04/08 05:47:38;;;;;;;8.60;5.68;;;12.20;99.90;;;16.56;100.00;100311.25;5462244;26;20028;-76
2024/04/08 05:50:04;;;;;;;9.00;5.45;;;12.30;99.90;;;16.54;100.00;100309.59;5463087;26;19998;-77
2024/04/08 05:52:32;;;;;;;10.68;5.70;;;12.30;99.90;;;16.67;100.00;100290.94;5435673;26;20020;-77
2024/04/08 05:54:58;;;;;;;12.52;5.55;;;12.40;99.90;;;16.40;100.00;100275.34;5455469;26;20345;-76
2024/04/08 05:57:25;;;;;;;14.77;6.85;;;12.40;99.90;;;16.07;100.00;100264.41;5460638;26;20027;-76
2024/04/08 05:59:51;;;;;;;9.95;5.43;;;12.40;99.90;;;15.66;100.00;100255.75;5449951;26;20417;-76
2024/04/08 06:02:17;;;;;;;10.30;5.20;;;12.50;99.90;;;15.59;100.00;100233.97;5447616;26;20018;-77
2024/04/08 06:04:43;;;;;;;10.35;4.97;;;12.50;99.90;;;15.58;100.00;100232.31;5444467;26;20003;-78
2024/04/08 06:07:09;;;;;;;10.73;5.00;;;12.50;99.90;;;15.83;100.00;100228.13;5444331;26;20092;-76
2024/04/08 06:09:35;;;;;;;9.63;5.00;;;12.50;99.90;;;15.81;100.00;100230.31;5445024;26;19995;-76
2024/04/08 06:12:02;;;;;;;7.65;4.47;;;12.50;99.90;;;16.27;100.00;100209.78;5428573;26;19999;-76
2024/04/08 06:14:28;;;;;;;8.63;4.97;;;12.50;99.90;;;16.38;100.00;100222.50;5441050;26;20333;-77
2024/04/08 06:16:53;;;;;;;9.30;4.78;;;12.50;99.90;;;16.77;100.00;100202.88;5450227;26;20002;-77
2024/04/08 06:19:19;;;;;;;8.32;4.45;;;12.60;99.90;;;17.26;100.00;100225.66;5443280;26;19996;-76
2024/04/08 06:21:45;;;;;;;9.25;4.78;;;12.60;99.90;;;17.22;100.00;100225.34;5417024;26;20058;-77
2024/04/08 06:24:11;;;;;;;8.38;4.72;;;12.70;99.90;;;17.37;100.00;100240.25;5448355;26;20010;-76
2024/04/08 06:26:37;;;;;;;8.27;4.60;;;12.90;99.90;;;17.68;100.00;100254.13;5449375;26;20015;-77
2024/04/08 06:29:02;;;;;;;10.50;4.22;;;13.00;99.90;;;17.65;100.00;100249.16;5448280;26;20039;-77
2024/04/08 06:31:31;;;;;;;7.63;4.25;;;13.10;99.90;;;17.94;100.00;100235.63;5444556;26;20001;-77
2024/04/08 06:33:56;;;;;;;8.70;4.00;;;13.20;99.90;;;17.69;100.00;100234.53;5449267;26;20430;-77
2024/04/08 06:36:22;;;;;;;12.52;3.97;;;13.20;99.90;;;18.06;100.00;100242.84;5447455;26;20632;-76
2024/04/08 06:38:48;;;;;;;6.72;3.65;;;13.30;99.90;;;17.86;100.00;100249.16;5448474;26;20387;-76
2024/04/08 06:41:15;;;;;;;9.48;3.70;;;13.40;99.90;;;18.02;100.00;100241.72;5441702;26;19990;-77
2024/04/08 06:43:44;;;;;;;7.88;3.30;;;13.50;99.90;;;17.56;100.00;100246.09;5418060;26;20092;-77
2024/04/08 06:46:10;;;;;;;6.65;3.55;;;13.50;99.90;;;17.54;100.00;100253.84;5443681;26;20002;-77
2024/04/08 06:48:36;;;;;;;6.90;3.70;;;13.60;99.90;;;17.87;100.00;100242.53;5446588;26;19995;-76
2024/04/08 06:51:04;;;;;;;5.72;3.33;;;13.70;99.90;;;17.52;100.00;100245.00;5418116;26;20449;-76
2024/04/08 06:53:29;;;;;;;7.30;3.70;;;13.70;99.90;;;17.45;100.00;100253.53;5416515;26;20006;-77
2024/04/08 06:55:55;;;;;;;6.20;3.20;;;13.80;99.90;;;17.87;100.00;100256.31;5443791;26;20010;-77
2024/04/08 06:58:22;;;;;;;6.55;3.40;;;13.90;99.90;;;17.60;100.00;100280.31;5438096;26;20004;-77
2024/04/08 07:00:48;;;;;;;8.75;3.45;;;13.90;99.90;;;18.26;100.00;100281.47;5416650;26;20329;-77
2024/04/08 07:03:15;;;;;;;8.55;2.97;;;14.00;99.90;;;18.32;100.00;100273.19;5437689;26;20006;-77
2024/04/08 07:05:41;;;;;;;8.20;2.78;;;;;;;18.23;100.00;100287.53;5436766;26;20003;-77
2024/04/08 07:08:10;;;;;;;9.48;2.88;;;14.20;99.90;;;18.69;100.00;100288.56;5443894;26;19995;-76
2024/04/08 07:10:40;;;;;;;6.65;2.67;;;14.30;99.90;;;18.88;100.00;100293.50;5445405;26;20013;-77
2024/04/08 07:13:06;;;;;;;6.50;2.85;;;14.40;99.90;;;19.10;100.00;100296.78;5448260;26;19998;-77
2024/04/08 07:15:32;;;;;;;6.90;2.60;;;14.50;99.90;;;19.52;100.00;100302.09;5439403;26;20388;-77
2024/04/08 07:17:58;;;;;;;7.53;2.72;;;14.70;99.90;;;19.82;100.00;100297.47;5438584;26;19995;-77
2024/04/08 07:20:24;;;;;;;5.32;2.80;;;;;;;19.76;100.00;100287.56;5437550;26;20076;-76
2024/04/08 07:22:50;;;;;;;5.63;2.58;;;14.90;99.90;;;20.06;100.00;100302.28;5438443;26;20006;-77
2024/04/08 07:25:16;;;;;;;5.68;2.30;;;15.20;99.90;;;20.02;100.00;100270.78;5438681;26;20010;-77
2024/04/08 07:27:42;;;;;;;8.10;2.88;;;15.30;99.90;;;20.38;100.00;100273.22;5432641;26;19991;-78
2024/04/08 07:30:08;;;;;;;7.05;2.38;;;15.50;99.90;;;20.45;100.00;100273.72;5439346;26;20003;-77
2024/04/08 07:32:34;;;;;;;7.00;2.85;;;15.80;99.90;;;20.36;100.00;100283.75;5410243;26;19995;-79
2024/04/08 07:35:00;;;;;;;6.35;2.80;;;15.80;99.90;;;20.72;100.00;100279.78;5418778;26;20116;-77
2024/04/08 07:37:26;;;;;;;7.15;2.67;;;16.00;99.90;;;20.52;100.00;100238.16;5439011;26;20003;-77
2024/04/08 07:39:52;;;;;;;7.22;3.05;;;16.10;99.90;;;20.49;100.00;100283.09;5415372;26;20466;-77
2024/04/08 07:42:17;;;;;;;7.30;3.30;;;16.10;99.90;;;20.56;100.00;100277.19;5433055;26;20006;-77
2024/04/08 07:44:43;;;;;;;6.45;3.15;;;16.10;99.90;;;20.35;100.00;100280.19;5437525;26;19995;-76
2024/04/08 07:47:09;;;;;;;5.55;3.67;;;16.20;99.90;;;20.19;100.00;100273.13;5437663;26;19991;-77
2024/04/08 07:49:35;;;;;;;6.68;3.47;;;16.30;99.90;;;20.50;100.00;100287.50;5447302;26;20009;-76
2024/04/08 07:52:02;;;;;;;6.22;3.70;;;16.30;99.90;;;20.59;100.00;100284.94;5434710;26;19994;-76
2024/04/08 07:54:29;;;;;;;7.95;3.90;;;16.40;99.90;;;20.92;100.00;100281.53;5434160;26;20003;-77
2024/04/08 07:56:56;;;;;;;8.82;4.47;;;;;;;21.36;100.00;100282.38;5433883;26;20658;-76
2024/04/08 07:59:22;;;;;;;8.00;3.65;;;;;;;21.50;99.74;100280.50;5436123;26;20026;-76
2024/04/08 08:01:50;;;;;;;9.98;6.35;;;;;;;21.25;100.00;100281.69;5428413;26;20721;-76
2024/04/08 08:04:16;;;;;;;11.75;6.65;;;;;;;21.59;96.51;100279.81;5441328;26;20046;-76
2024/04/08 08:06:43;;;;;;;15.15;8.15;;;;;;;21.30;99.52;100278.84;5447183;26;20485;-76
2024/04/08 08:09:09;;;;;;;9.85;6.35;;;;;;;21.56;99.66;100284.03;5463421;26;20114;-77
2024/04/08 08:11:35;;;;;;;11.20;8.05;;;;;;;22.18;97.89;100273.94;5461644;26;20450;-77
2024/04/08 08:14:01;;;;;;;13.15;9.90;;;;;;;21.59;96.99;100269.53;5463372;26;20002;-76
2024/04/08 08:16:28;;;;;;;17.08;11.35;;;;;;;22.36;93.04;100258.31;5463616;26;19995;-77
2024/04/08 08:18:54;;;;;;;13.32;7.63;;;;;;;22.36;91.36;100270.25;5461326;26;20047;-77
2024/04/08 08:21:21;;;;;;;21.60;15.57;;;;;;;22.65;88.77;100265.59;5434411;26;20002;-76
2024/04/08 08:23:47;;;;;;;19.20;13.85;;;;;;;23.11;86.10;100266.59;5429651;26;20030;-76
2024/04/08 08:26:13;;;;;;;19.77;15.15;;;;;;;23.04;82.85;100257.84;5433960;26;19998;-77
2024/04/08 08:28:39;;;;;;;22.67;16.45;;;;;;;22.77;87.16;100270.63;5464410;26;20006;-76
2024/04/08 08:31:05;;;;;;;21.33;14.13;;;;;;;22.75;87.00;100270.94;5435695;26;20002;-76
2024/04/08 08:33:31;;;;;;;18.30;12.75;;;;;;;22.92;83.37;100266.72;5442930;26;20418;-77
2024/04/08 08:35:58;;;;;;;25.23;18.13;;;;;;;22.42;87.64;100270.97;5455884;26;20059;-76
2024/04/08 08:38:24;;;;;;;25.38;18.98;;;;;;;22.86;82.33;100265.19;5449635;26;20003;-76
2024/04/08 08:41:21;;;;;;;27.55;20.58;;;;;;;22.39;91.52;100264.06;5405389;26;20018;-77
2024/04/08 08:43:49;;;;;;;28.10;20.42;;;;;;;21.82;95.71;100272.56;5432017;26;20350;-75
2024/04/08 08:46:17;;;;;;;26.75;20.38;;;;;;;21.76;96.90;100268.22;5412504;26;20314;-76
2024/04/08 08:48:46;;;;;;;28.52;21.35;;;;;;;21.67;99.65;100273.63;5432911;26;20140;-77
2024/04/08 08:51:13;;;;;;;25.70;20.13;;;;;;;22.02;95.16;100251.16;5413610;26;19995;-78
2024/04/08 08:53:39;;;;;;;28.77;20.15;;;;;;;21.96;92.37;100250.41;5445574;26;20006;-78
2024/04/08 08:56:13;;;;;;;24.33;18.30;;;;;;;22.46;93.75;100244.25;5436911;26;19995;-77
2024/04/08 08:58:39;;;;;;;28.98;18.83;;;;;;;22.42;95.96;100241.25;5443758;26;20539;-77
2024/04/08 09:01:09;;;;;;;25.40;19.23;;;;;;;22.31;92.38;100233.41;5436505;26;19999;-77
2024/04/08 09:03:36;;;;;;;26.25;18.85;;;;;;;22.57;92.40;100236.53;5472710;26;20443;-76
2024/04/08 09:06:02;;;;;;;26.40;17.65;;;;;;;22.79;86.86;100241.38;5420581;26;19995;-76
2024/04/08 09:08:28;;;;;;;24.42;17.20;;;;;;;23.72;79.27;100230.16;5448087;26;19998;-76
2024/04/08 09:10:54;;;;;;;19.55;16.60;;;;;;;24.44;71.05;100221.13;5434828;26;19999;-76
2024/04/08 09:13:22;;;;;;;20.60;16.08;;;;;;;22.88;82.15;100237.88;5439370;26;20022;-76
2024/04/08 09:15:50;;;;;;;23.15;18.15;;;;;;;22.65;83.52;100240.56;5416554;26;20077;-76
2024/04/08 09:18:18;;;;;;;24.00;18.83;;;;;;;22.69;87.77;100238.81;5444687;26;20037;-76
2024/04/08 09:20:44;;;;;;;21.33;15.93;;;;;;;23.46;81.30;100239.13;5441196;26;20027;-77
2024/04/08 09:23:11;;;;;;;22.67;15.73;;;;;;;23.21;73.21;100218.25;5403325;26;20017;-77
2024/04/08 09:25:38;;;;;;;18.60;13.63;;;;;;;23.78;80.21;100226.13;5461218;26;20566;-77
2024/04/08 09:28:04;;;;;;;18.27;13.70;;;;;;;24.50;73.13;100209.50;5427860;26;20010;-76
2024/04/08 09:30:30;;;;;;;19.00;14.20;;;;;;;24.11;80.88;100230.63;5453482;26;19994;-77
2024/04/08 09:32:57;;;;;;;18.92;12.85;;;;;;;24.25;73.89;100230.53;5448737;26;20006;-77
2024/04/08 09:35:24;;;;;;;17.80;12.90;;;;;;;24.20;67.93;100212.00;5449301;26;19995;-77
2024/04/08 09:37:53;;;;;;;20.83;12.68;;;;;;;25.11;64.99;100205.25;5446610;26;20003;-77
2024/04/08 09:40:24;;;;;;;17.80;13.35;;;;;;;24.55;68.83;100212.13;5444722;26;20162;-76
2024/04/08 09:42:51;;;;;;;17.42;13.77;;;;;;;23.92;76.47;100217.72;5448242;26;20018;-78
2024/04/08 09:45:19;;;;;;;18.75;14.02;;;;;;;24.20;77.63;100219.53;5448995;26;20454;-78
2024/04/08 09:47:45;;;;;;;;;;;;;;;23.67;72.24;100211.63;5450256;26;19999;-78
2024/04/08 09:50:12;;;;;;;19.58;12.52;;;;;;;23.89;76.29;100210.00;5418668;26;19931;-79
2024/04/08 09:52:39;;;;;;;15.63;12.68;;;;;;;24.51;74.40;100204.72;5447747;26;20003;-79
2024/04/08 09:55:07;;;;;;;15.38;11.73;;;;;;;24.17;74.27;100200.66;5419299;26;19995;-78
2024/04/08 09:57:39;;;;;;;15.75;11.50;;;;;;;24.22;76.24;100195.78;5415944;26;20003;-78
2024/04/08 10:00:18;;;;;;;14.82;11.40;;;;;;;24.65;76.04;100199.88;5443909;26;19995;-80
2024/04/08 10:02:46;;;;;;;14.48;10.70;;;;;;;25.05;68.74;100187.84;5450210;26;19991;-79
2024/04/08 10:05:13;;;;;;;16.25;11.65;;;;;;;24.79;68.00;100190.56;5449261;26;20003;-79
2024/04/08 10:07:41;;;;;;;14.65;10.45;;;;;;;26.28;67.82;100196.13;5447541;26;20006;-80
2024/04/08 10:10:11;;;;;;;12.48;8.75;;;;;;;27.48;57.18;100177.63;5450740;26;19995;-79
2024/04/08 10:12:39;;;;;;;23.42;10.15;;;;;;;27.77;56.02;100164.69;5450444;26;20003;-78
2024/04/08 10:15:13;;;;;;;12.90;8.55;;;;;;;27.52;55.82;100173.00;5449469;26;20043;-78
2024/04/08 10:17:44;;;;;;;14.30;9.68;;;;;;;28.92;50.20;100152.88;5449648;26;20026;-78
2024/04/08 10:20:18;;;;;;;14.57;9.50;;;;;;;28.70;52.72;100169.00;5437283;26;19991;-77